sensor_id;sensor_type;location;lat;lon;timestamp;temperature;humidity
77052;SHT30;65980;44.898;8.602;2023-05-29T00:02:04;20.38;65.40
77052;SHT30;65980;44.898;8.602;2023-05-29T00:05:12;20.14;66.48
77052;SHT30;65980;44.898;8.602;2023-05-29T00:08:17;20.04;66.88
77052;SHT30;65980;44.898;8.602;2023-05-29T00:11:20;19.98;67.37
77052;SHT30;65980;44.898;8.602;2023-05-29T00:14:25;19.93;67.14
77052;SHT30;65980;44.898;8.602;2023-05-29T00:17:29;19.87;67.06
77052;SHT30;65980;44.898;8.602;2023-05-29T00:20:36;19.82;67.54
77052;SHT30;65980;44.898;8.602;2023-05-29T00:23:41;19.80;68.35
77052;SHT30;65980;44.898;8.602;2023-05-29T00:26:45;19.68;68.68
77052;SHT30;65980;44.898;8.602;2023-05-29T00:29:50;19.68;68.77
77052;SHT30;65980;44.898;8.602;2023-05-29T00:32:54;19.59;68.94
77052;SHT30;65980;44.898;8.602;2023-05-29T00:35:57;19.58;69.16
77052;SHT30;65980;44.898;8.602;2023-05-29T00:39:02;19.52;69.48
77052;SHT30;65980;44.898;8.602;2023-05-29T00:42:06;19.39;70.25
77052;SHT30;65980;44.898;8.602;2023-05-29T00:45:10;19.30;70.67
77052;SHT30;65980;44.898;8.602;2023-05-29T00:48:14;19.24;70.30
77052;SHT30;65980;44.898;8.602;2023-05-29T00:51:18;19.17;70.62
77052;SHT30;65980;44.898;8.602;2023-05-29T00:54:25;19.13;70.70
77052;SHT30;65980;44.898;8.602;2023-05-29T00:57:30;19.07;70.35
77052;SHT30;65980;44.898;8.602;2023-05-29T01:00:34;19.14;69.98
77052;SHT30;65980;44.898;8.602;2023-05-29T01:03:39;19.10;69.92
77052;SHT30;65980;44.898;8.602;2023-05-29T01:06:45;19.06;70.35
77052;SHT30;65980;44.898;8.602;2023-05-29T01:09:49;19.03;70.46
77052;SHT30;65980;44.898;8.602;2023-05-29T01:13:38;19.04;70.37
77052;SHT30;65980;44.898;8.602;2023-05-29T01:16:29;19.02;70.53
77052;SHT30;65980;44.898;8.602;2023-05-29T01:19:54;19.14;70.00
77052;SHT30;65980;44.898;8.602;2023-05-29T01:23:23;19.04;69.66
77052;SHT30;65980;44.898;8.602;2023-05-29T01:29:41;18.96;69.61
77052;SHT30;65980;44.898;8.602;2023-05-29T01:32:47;18.96;69.14
77052;SHT30;65980;44.898;8.602;2023-05-29T01:35:52;19.07;68.54
77052;SHT30;65980;44.898;8.602;2023-05-29T01:38:56;19.06;68.75
77052;SHT30;65980;44.898;8.602;2023-05-29T01:42:00;19.02;68.46
77052;SHT30;65980;44.898;8.602;2023-05-29T01:45:06;19.03;68.81
77052;SHT30;65980;44.898;8.602;2023-05-29T01:48:10;18.95;69.04
77052;SHT30;65980;44.898;8.602;2023-05-29T01:51:14;18.93;69.48
77052;SHT30;65980;44.898;8.602;2023-05-29T01:54:19;18.87;69.72
77052;SHT30;65980;44.898;8.602;2023-05-29T01:57:23;18.73;70.45
77052;SHT30;65980;44.898;8.602;2023-05-29T02:00:30;18.77;70.70
77052;SHT30;65980;44.898;8.602;2023-05-29T02:03:33;18.79;70.61
77052;SHT30;65980;44.898;8.602;2023-05-29T02:06:38;18.75;71.07
77052;SHT30;65980;44.898;8.602;2023-05-29T02:09:42;18.73;71.58
77052;SHT30;65980;44.898;8.602;2023-05-29T02:12:46;18.53;72.71
77052;SHT30;65980;44.898;8.602;2023-05-29T02:15:49;18.49;73.37
77052;SHT30;65980;44.898;8.602;2023-05-29T02:18:53;18.41;74.23
77052;SHT30;65980;44.898;8.602;2023-05-29T02:21:57;18.42;74.24
77052;SHT30;65980;44.898;8.602;2023-05-29T02:25:02;18.34;74.56
77052;SHT30;65980;44.898;8.602;2023-05-29T02:28:07;18.16;75.02
77052;SHT30;65980;44.898;8.602;2023-05-29T02:31:10;18.17;75.04
77052;SHT30;65980;44.898;8.602;2023-05-29T02:34:15;18.21;74.72
77052;SHT30;65980;44.898;8.602;2023-05-29T02:37:19;18.23;73.79
77052;SHT30;65980;44.898;8.602;2023-05-29T02:40:24;18.23;73.52
77052;SHT30;65980;44.898;8.602;2023-05-29T02:43:28;18.16;73.79
77052;SHT30;65980;44.898;8.602;2023-05-29T02:46:32;18.14;73.55
77052;SHT30;65980;44.898;8.602;2023-05-29T02:49:37;18.14;73.67
77052;SHT30;65980;44.898;8.602;2023-05-29T02:52:40;18.13;73.53
77052;SHT30;65980;44.898;8.602;2023-05-29T02:55:45;18.04;73.71
77052;SHT30;65980;44.898;8.602;2023-05-29T02:58:50;18.07;73.86
77052;SHT30;65980;44.898;8.602;2023-05-29T03:01:55;18.01;73.72
77052;SHT30;65980;44.898;8.602;2023-05-29T03:05:00;17.89;74.30
77052;SHT30;65980;44.898;8.602;2023-05-29T03:08:05;17.85;74.24
77052;SHT30;65980;44.898;8.602;2023-05-29T03:11:09;17.86;74.20
77052;SHT30;65980;44.898;8.602;2023-05-29T03:14:16;17.83;74.16
77052;SHT30;65980;44.898;8.602;2023-05-29T03:17:19;17.69;74.52
77052;SHT30;65980;44.898;8.602;2023-05-29T03:20:24;17.75;74.25
77052;SHT30;65980;44.898;8.602;2023-05-29T03:23:33;17.66;74.47
77052;SHT30;65980;44.898;8.602;2023-05-29T03:26:36;17.72;74.35
77052;SHT30;65980;44.898;8.602;2023-05-29T03:29:40;17.76;74.32
77052;SHT30;65980;44.898;8.602;2023-05-29T03:32:44;17.65;74.58
77052;SHT30;65980;44.898;8.602;2023-05-29T03:35:49;17.79;74.15
77052;SHT30;65980;44.898;8.602;2023-05-29T03:38:54;17.73;74.47
77052;SHT30;65980;44.898;8.602;2023-05-29T03:41:57;17.79;74.23
77052;SHT30;65980;44.898;8.602;2023-05-29T03:45:02;17.75;74.60
77052;SHT30;65980;44.898;8.602;2023-05-29T03:48:07;17.73;74.71
77052;SHT30;65980;44.898;8.602;2023-05-29T03:51:12;17.72;74.79
77052;SHT30;65980;44.898;8.602;2023-05-29T03:54:18;17.66;75.02
77052;SHT30;65980;44.898;8.602;2023-05-29T03:57:22;17.73;74.75
77052;SHT30;65980;44.898;8.602;2023-05-29T04:00:27;17.78;74.74
77052;SHT30;65980;44.898;8.602;2023-05-29T04:03:34;17.86;74.68
77052;SHT30;65980;44.898;8.602;2023-05-29T04:06:38;17.90;74.33
77052;SHT30;65980;44.898;8.602;2023-05-29T04:09:43;17.91;74.37
77052;SHT30;65980;44.898;8.602;2023-05-29T04:12:46;17.93;74.37
77052;SHT30;65980;44.898;8.602;2023-05-29T04:15:51;17.94;74.35
77052;SHT30;65980;44.898;8.602;2023-05-29T04:18:56;17.90;74.56
77052;SHT30;65980;44.898;8.602;2023-05-29T04:22:04;17.93;74.62
77052;SHT30;65980;44.898;8.602;2023-05-29T04:25:09;17.96;74.52
77052;SHT30;65980;44.898;8.602;2023-05-29T04:28:13;17.89;74.74
77052;SHT30;65980;44.898;8.602;2023-05-29T04:31:18;17.96;74.75
77052;SHT30;65980;44.898;8.602;2023-05-29T04:34:21;17.93;74.61
77052;SHT30;65980;44.898;8.602;2023-05-29T04:37:26;18.04;74.04
77052;SHT30;65980;44.898;8.602;2023-05-29T04:40:33;18.07;74.11
77052;SHT30;65980;44.898;8.602;2023-05-29T04:43:40;17.99;74.36
77052;SHT30;65980;44.898;8.602;2023-05-29T04:46:44;18.00;74.24
77052;SHT30;65980;44.898;8.602;2023-05-29T04:49:48;18.01;74.32
77052;SHT30;65980;44.898;8.602;2023-05-29T04:52:53;18.01;74.09
77052;SHT30;65980;44.898;8.602;2023-05-29T04:55:57;18.07;73.75
77052;SHT30;65980;44.898;8.602;2023-05-29T04:59:02;18.28;73.26
77052;SHT30;65980;44.898;8.602;2023-05-29T05:02:06;18.11;73.51
77052;SHT30;65980;44.898;8.602;2023-05-29T05:05:10;17.99;73.93
77052;SHT30;65980;44.898;8.602;2023-05-29T05:08:16;17.82;74.48
77052;SHT30;65980;44.898;8.602;2023-05-29T05:11:22;17.82;74.49
77052;SHT30;65980;44.898;8.602;2023-05-29T05:14:27;17.78;74.75
77052;SHT30;65980;44.898;8.602;2023-05-29T05:17:31;17.79;74.70
77052;SHT30;65980;44.898;8.602;2023-05-29T05:20:36;17.76;74.85
77052;SHT30;65980;44.898;8.602;2023-05-29T05:23:41;17.89;74.77
77052;SHT30;65980;44.898;8.602;2023-05-29T05:26:47;17.68;75.75
77052;SHT30;65980;44.898;8.602;2023-05-29T05:29:53;17.75;75.44
77052;SHT30;65980;44.898;8.602;2023-05-29T05:32:57;17.69;75.16
77052;SHT30;65980;44.898;8.602;2023-05-29T05:36:01;17.75;75.07
77052;SHT30;65980;44.898;8.602;2023-05-29T05:39:06;17.79;75.01
77052;SHT30;65980;44.898;8.602;2023-05-29T05:42:10;17.72;74.70
77052;SHT30;65980;44.898;8.602;2023-05-29T05:45:24;17.87;74.27
77052;SHT30;65980;44.898;8.602;2023-05-29T05:48:29;17.94;74.11
77052;SHT30;65980;44.898;8.602;2023-05-29T05:55:49;17.79;74.37
77052;SHT30;65980;44.898;8.602;2023-05-29T05:59:09;17.79;74.47
77052;SHT30;65980;44.898;8.602;2023-05-29T06:02:14;17.82;74.25
77052;SHT30;65980;44.898;8.602;2023-05-29T06:05:18;18.06;73.52
77052;SHT30;65980;44.898;8.602;2023-05-29T06:08:23;18.14;73.55
77052;SHT30;65980;44.898;8.602;2023-05-29T06:11:30;18.30;73.00
77052;SHT30;65980;44.898;8.602;2023-05-29T06:14:33;18.21;73.49
77052;SHT30;65980;44.898;8.602;2023-05-29T06:17:38;18.08;73.72
77052;SHT30;65980;44.898;8.602;2023-05-29T06:20:43;18.07;73.84
77052;SHT30;65980;44.898;8.602;2023-05-29T06:23:48;18.01;73.90
77052;SHT30;65980;44.898;8.602;2023-05-29T06:26:53;18.03;73.85
77052;SHT30;65980;44.898;8.602;2023-05-29T06:30:00;18.03;73.80
77052;SHT30;65980;44.898;8.602;2023-05-29T06:33:09;18.03;74.29
77052;SHT30;65980;44.898;8.602;2023-05-29T06:36:16;18.24;72.89
77052;SHT30;65980;44.898;8.602;2023-05-29T06:42:49;18.38;72.39
77052;SHT30;65980;44.898;8.602;2023-05-29T06:50:36;19.03;71.05
77052;SHT30;65980;44.898;8.602;2023-05-29T06:54:25;18.85;70.94
77052;SHT30;65980;44.898;8.602;2023-05-29T06:57:30;18.77;71.01
77052;SHT30;65980;44.898;8.602;2023-05-29T07:00:34;18.76;71.26
77052;SHT30;65980;44.898;8.602;2023-05-29T07:03:59;18.79;71.46
77052;SHT30;65980;44.898;8.602;2023-05-29T07:07:04;18.95;70.85
77052;SHT30;65980;44.898;8.602;2023-05-29T07:10:25;19.18;70.48
77052;SHT30;65980;44.898;8.602;2023-05-29T07:13:30;19.28;69.50
77052;SHT30;65980;44.898;8.602;2023-05-29T07:16:34;19.13;70.28
77052;SHT30;65980;44.898;8.602;2023-05-29T07:19:42;19.08;70.12
77052;SHT30;65980;44.898;8.602;2023-05-29T07:22:51;19.23;69.68
77052;SHT30;65980;44.898;8.602;2023-05-29T07:30:43;19.39;69.77
77052;SHT30;65980;44.898;8.602;2023-05-29T07:34:00;19.52;68.46
77052;SHT30;65980;44.898;8.602;2023-05-29T07:37:07;19.66;68.37
77052;SHT30;65980;44.898;8.602;2023-05-29T07:40:13;20.21;67.50
77052;SHT30;65980;44.898;8.602;2023-05-29T07:43:36;20.56;66.89
77052;SHT30;65980;44.898;8.602;2023-05-29T07:46:47;20.45;66.10
77052;SHT30;65980;44.898;8.602;2023-05-29T07:50:17;20.58;65.98
77052;SHT30;65980;44.898;8.602;2023-05-29T07:53:23;20.45;66.69
77052;SHT30;65980;44.898;8.602;2023-05-29T07:56:28;20.64;66.77
77052;SHT30;65980;44.898;8.602;2023-05-29T08:00:09;20.61;66.40
77052;SHT30;65980;44.898;8.602;2023-05-29T08:03:24;21.02;65.33
77052;SHT30;65980;44.898;8.602;2023-05-29T08:06:51;21.00;64.76
77052;SHT30;65980;44.898;8.602;2023-05-29T08:09:57;21.41;64.19
77052;SHT30;65980;44.898;8.602;2023-05-29T08:13:01;21.83;62.89
77052;SHT30;65980;44.898;8.602;2023-05-29T08:16:05;22.12;62.19
77052;SHT30;65980;44.898;8.602;2023-05-29T08:19:11;22.52;60.82
77052;SHT30;65980;44.898;8.602;2023-05-29T08:26:11;23.04;59.77
77052;SHT30;65980;44.898;8.602;2023-05-29T08:29:16;23.10;59.49
77052;SHT30;65980;44.898;8.602;2023-05-29T08:32:21;23.36;59.39
77052;SHT30;65980;44.898;8.602;2023-05-29T08:35:25;23.38;58.93
77052;SHT30;65980;44.898;8.602;2023-05-29T08:45:39;22.95;57.07
77052;SHT30;65980;44.898;8.602;2023-05-29T08:48:46;22.92;56.77
77052;SHT30;65980;44.898;8.602;2023-05-29T08:51:54;22.73;57.88
77052;SHT30;65980;44.898;8.602;2023-05-29T08:58:13;22.31;60.16
77052;SHT30;65980;44.898;8.602;2023-05-29T09:01:25;22.44;60.27
77052;SHT30;65980;44.898;8.602;2023-05-29T09:04:32;22.25;61.43
77052;SHT30;65980;44.898;8.602;2023-05-29T09:07:40;22.24;60.21
77052;SHT30;65980;44.898;8.602;2023-05-29T09:10:57;22.49;60.49
77052;SHT30;65980;44.898;8.602;2023-05-29T09:17:44;23.51;57.37
77052;SHT30;65980;44.898;8.602;2023-05-29T09:20:55;23.95;57.40
77052;SHT30;65980;44.898;8.602;2023-05-29T09:24:13;22.93;59.70
77052;SHT30;65980;44.898;8.602;2023-05-29T09:27:21;23.10;59.38
77052;SHT30;65980;44.898;8.602;2023-05-29T09:30:45;23.27;58.86
77052;SHT30;65980;44.898;8.602;2023-05-29T09:33:56;23.03;59.25
77052;SHT30;65980;44.898;8.602;2023-05-29T09:37:40;22.96;59.81
77052;SHT30;65980;44.898;8.602;2023-05-29T09:41:05;23.58;57.65
77052;SHT30;65980;44.898;8.602;2023-05-29T09:44:13;23.66;57.69
77052;SHT30;65980;44.898;8.602;2023-05-29T09:47:20;24.21;56.47
77052;SHT30;65980;44.898;8.602;2023-05-29T09:50:48;23.98;56.42
77052;SHT30;65980;44.898;8.602;2023-05-29T09:53:52;24.19;56.01
77052;SHT30;65980;44.898;8.602;2023-05-29T09:57:00;24.26;56.26
77052;SHT30;65980;44.898;8.602;2023-05-29T10:00:08;23.34;57.64
77052;SHT30;65980;44.898;8.602;2023-05-29T10:06:53;23.50;58.25
77052;SHT30;65980;44.898;8.602;2023-05-29T10:10:01;23.57;58.11
77052;SHT30;65980;44.898;8.602;2023-05-29T10:13:15;23.53;58.39
77052;SHT30;65980;44.898;8.602;2023-05-29T10:16:23;23.07;59.29
77052;SHT30;65980;44.898;8.602;2023-05-29T10:27:22;23.28;58.64
77052;SHT30;65980;44.898;8.602;2023-05-29T10:30:47;23.02;58.86
77052;SHT30;65980;44.898;8.602;2023-05-29T10:34:00;23.51;57.87
77052;SHT30;65980;44.898;8.602;2023-05-29T10:37:09;24.36;57.14
77052;SHT30;65980;44.898;8.602;2023-05-29T10:40:25;24.55;54.80
77052;SHT30;65980;44.898;8.602;2023-05-29T10:43:41;24.63;54.68
77052;SHT30;65980;44.898;8.602;2023-05-29T10:49:54;24.85;55.42
77052;SHT30;65980;44.898;8.602;2023-05-29T10:57:22;26.39;51.46
77052;SHT30;65980;44.898;8.602;2023-05-29T11:00:40;26.40;52.23
77052;SHT30;65980;44.898;8.602;2023-05-29T11:15:29;26.26;51.91
77052;SHT30;65980;44.898;8.602;2023-05-29T11:18:43;25.77;52.68
77052;SHT30;65980;44.898;8.602;2023-05-29T11:22:07;26.26;51.51
77052;SHT30;65980;44.898;8.602;2023-05-29T11:25:23;25.78;53.13
77052;SHT30;65980;44.898;8.602;2023-05-29T11:28:28;26.05;52.56
77052;SHT30;65980;44.898;8.602;2023-05-29T11:31:35;25.60;53.57
77052;SHT30;65980;44.898;8.602;2023-05-29T11:34:42;25.70;53.93
77052;SHT30;65980;44.898;8.602;2023-05-29T11:37:49;25.81;53.42
77052;SHT30;65980;44.898;8.602;2023-05-29T11:40:54;25.65;53.77
77052;SHT30;65980;44.898;8.602;2023-05-29T11:43:59;25.20;55.07
77052;SHT30;65980;44.898;8.602;2023-05-29T11:47:06;25.36;54.42
77052;SHT30;65980;44.898;8.602;2023-05-29T11:50:21;25.47;55.26
77052;SHT30;65980;44.898;8.602;2023-05-29T11:53:34;25.51;53.99
77052;SHT30;65980;44.898;8.602;2023-05-29T11:56:38;25.08;55.08
77052;SHT30;65980;44.898;8.602;2023-05-29T11:59:45;24.93;54.70
77052;SHT30;65980;44.898;8.602;2023-05-29T12:02:49;25.31;54.11
77052;SHT30;65980;44.898;8.602;2023-05-29T12:05:57;25.44;54.31
77052;SHT30;65980;44.898;8.602;2023-05-29T12:09:02;25.48;54.82
77052;SHT30;65980;44.898;8.602;2023-05-29T12:12:07;25.43;54.36
77052;SHT30;65980;44.898;8.602;2023-05-29T12:15:11;25.40;54.49
77052;SHT30;65980;44.898;8.602;2023-05-29T12:18:18;25.36;54.26
77052;SHT30;65980;44.898;8.602;2023-05-29T12:21:26;25.41;53.54
77052;SHT30;65980;44.898;8.602;2023-05-29T12:24:34;25.60;54.11
77052;SHT30;65980;44.898;8.602;2023-05-29T12:28:05;25.34;54.25
77052;SHT30;65980;44.898;8.602;2023-05-29T12:31:43;25.86;53.67
77052;SHT30;65980;44.898;8.602;2023-05-29T12:34:56;26.17;51.38
77052;SHT30;65980;44.898;8.602;2023-05-29T12:38:02;26.25;49.82
77052;SHT30;65980;44.898;8.602;2023-05-29T12:41:06;25.67;52.07
77052;SHT30;65980;44.898;8.602;2023-05-29T12:44:11;25.36;51.43
77052;SHT30;65980;44.898;8.602;2023-05-29T12:50:58;25.47;51.49
77052;SHT30;65980;44.898;8.602;2023-05-29T12:54:02;25.06;52.24
77052;SHT30;65980;44.898;8.602;2023-05-29T12:57:14;25.43;51.96
77052;SHT30;65980;44.898;8.602;2023-05-29T13:00:23;26.00;49.67
77052;SHT30;65980;44.898;8.602;2023-05-29T13:03:27;26.17;49.81
77052;SHT30;65980;44.898;8.602;2023-05-29T13:06:37;26.37;50.01
77052;SHT30;65980;44.898;8.602;2023-05-29T13:09:53;26.39;49.58
77052;SHT30;65980;44.898;8.602;2023-05-29T13:13:18;26.10;49.57
77052;SHT30;65980;44.898;8.602;2023-05-29T13:16:41;25.84;50.59
77052;SHT30;65980;44.898;8.602;2023-05-29T13:20:02;26.02;50.17
77052;SHT30;65980;44.898;8.602;2023-05-29T13:23:16;25.95;50.02
77052;SHT30;65980;44.898;8.602;2023-05-29T13:26:36;26.30;48.53
77052;SHT30;65980;44.898;8.602;2023-05-29T13:29:51;26.62;49.51
77052;SHT30;65980;44.898;8.602;2023-05-29T13:33:01;26.62;49.14
77052;SHT30;65980;44.898;8.602;2023-05-29T13:36:15;26.54;48.29
77052;SHT30;65980;44.898;8.602;2023-05-29T13:39:19;26.58;48.07
77052;SHT30;65980;44.898;8.602;2023-05-29T13:42:23;26.96;48.17
77052;SHT30;65980;44.898;8.602;2023-05-29T13:45:30;27.09;47.25
77052;SHT30;65980;44.898;8.602;2023-05-29T13:48:46;26.91;46.94
77052;SHT30;65980;44.898;8.602;2023-05-29T13:51:50;27.03;46.75
77052;SHT30;65980;44.898;8.602;2023-05-29T13:54:54;26.78;46.64
77052;SHT30;65980;44.898;8.602;2023-05-29T13:58:00;27.33;47.15
77052;SHT30;65980;44.898;8.602;2023-05-29T14:01:05;27.00;47.43
77052;SHT30;65980;44.898;8.602;2023-05-29T14:04:09;26.88;47.59
77052;SHT30;65980;44.898;8.602;2023-05-29T14:07:13;26.65;47.18
77052;SHT30;65980;44.898;8.602;2023-05-29T14:10:17;26.43;48.35
77052;SHT30;65980;44.898;8.602;2023-05-29T14:13:21;25.92;48.90
77052;SHT30;65980;44.898;8.602;2023-05-29T14:16:25;26.06;48.24
77052;SHT30;65980;44.898;8.602;2023-05-29T14:19:30;26.29;47.61
77052;SHT30;65980;44.898;8.602;2023-05-29T14:22:35;26.40;48.08
77052;SHT30;65980;44.898;8.602;2023-05-29T14:25:44;26.71;46.97
77052;SHT30;65980;44.898;8.602;2023-05-29T14:28:48;26.67;47.53
77052;SHT30;65980;44.898;8.602;2023-05-29T14:31:52;26.70;46.92
77052;SHT30;65980;44.898;8.602;2023-05-29T14:34:57;26.91;46.97
77052;SHT30;65980;44.898;8.602;2023-05-29T14:38:08;27.19;45.88
77052;SHT30;65980;44.898;8.602;2023-05-29T14:41:17;27.39;45.76
77052;SHT30;65980;44.898;8.602;2023-05-29T14:44:21;27.23;46.37
77052;SHT30;65980;44.898;8.602;2023-05-29T14:47:25;26.84;46.94
77052;SHT30;65980;44.898;8.602;2023-05-29T14:50:33;26.79;47.08
77052;SHT30;65980;44.898;8.602;2023-05-29T14:53:41;26.91;46.80
77052;SHT30;65980;44.898;8.602;2023-05-29T14:56:46;26.91;47.43
77052;SHT30;65980;44.898;8.602;2023-05-29T14:59:54;26.74;47.72
77052;SHT30;65980;44.898;8.602;2023-05-29T15:02:59;27.05;46.78
77052;SHT30;65980;44.898;8.602;2023-05-29T15:06:10;27.09;46.43
77052;SHT30;65980;44.898;8.602;2023-05-29T15:09:40;27.25;47.49
77052;SHT30;65980;44.898;8.602;2023-05-29T15:12:44;26.96;47.10
77052;SHT30;65980;44.898;8.602;2023-05-29T15:15:49;27.03;47.44
77052;SHT30;65980;44.898;8.602;2023-05-29T15:18:53;26.98;47.27
77052;SHT30;65980;44.898;8.602;2023-05-29T15:21:57;26.87;48.09
77052;SHT30;65980;44.898;8.602;2023-05-29T15:25:00;26.70;47.27
77052;SHT30;65980;44.898;8.602;2023-05-29T15:28:05;26.92;47.24
77052;SHT30;65980;44.898;8.602;2023-05-29T15:31:10;26.91;47.39
77052;SHT30;65980;44.898;8.602;2023-05-29T15:34:16;27.22;46.23
77052;SHT30;65980;44.898;8.602;2023-05-29T15:37:22;27.29;46.47
77052;SHT30;65980;44.898;8.602;2023-05-29T15:40:27;27.50;45.74
77052;SHT30;65980;44.898;8.602;2023-05-29T15:43:33;27.81;45.36
77052;SHT30;65980;44.898;8.602;2023-05-29T15:46:39;27.70;44.98
77052;SHT30;65980;44.898;8.602;2023-05-29T15:49:44;27.70;45.38
77052;SHT30;65980;44.898;8.602;2023-05-29T15:52:52;27.37;46.34
77052;SHT30;65980;44.898;8.602;2023-05-29T15:55:56;27.67;46.75
77052;SHT30;65980;44.898;8.602;2023-05-29T15:59:11;27.47;46.05
77052;SHT30;65980;44.898;8.602;2023-05-29T16:02:15;27.22;46.97
77052;SHT30;65980;44.898;8.602;2023-05-29T16:05:19;27.03;46.92
77052;SHT30;65980;44.898;8.602;2023-05-29T16:08:26;26.96;46.57
77052;SHT30;65980;44.898;8.602;2023-05-29T16:11:29;27.20;46.59
77052;SHT30;65980;44.898;8.602;2023-05-29T16:14:34;27.53;45.61
77052;SHT30;65980;44.898;8.602;2023-05-29T16:17:38;27.42;45.93
77052;SHT30;65980;44.898;8.602;2023-05-29T16:20:43;27.23;46.40
77052;SHT30;65980;44.898;8.602;2023-05-29T16:23:48;27.15;46.13
77052;SHT30;65980;44.898;8.602;2023-05-29T16:26:52;27.68;45.48
77052;SHT30;65980;44.898;8.602;2023-05-29T16:29:55;27.55;45.80
77052;SHT30;65980;44.898;8.602;2023-05-29T16:33:00;28.40;44.08
77052;SHT30;65980;44.898;8.602;2023-05-29T16:36:04;29.50;40.90
77052;SHT30;65980;44.898;8.602;2023-05-29T16:39:07;30.35;39.63
77052;SHT30;65980;44.898;8.602;2023-05-29T16:42:12;31.29;37.85
77052;SHT30;65980;44.898;8.602;2023-05-29T16:45:17;32.07;36.92
77052;SHT30;65980;44.898;8.602;2023-05-29T16:48:21;30.46;39.29
77052;SHT30;65980;44.898;8.602;2023-05-29T16:51:25;29.78;40.17
77052;SHT30;65980;44.898;8.602;2023-05-29T16:54:30;28.33;43.60
77052;SHT30;65980;44.898;8.602;2023-05-29T16:57:34;27.87;44.47
77052;SHT30;65980;44.898;8.602;2023-05-29T17:00:41;27.67;43.99
77052;SHT30;65980;44.898;8.602;2023-05-29T17:03:45;27.96;43.63
77052;SHT30;65980;44.898;8.602;2023-05-29T17:06:50;27.92;44.14
77052;SHT30;65980;44.898;8.602;2023-05-29T17:09:54;27.57;44.61
77052;SHT30;65980;44.898;8.602;2023-05-29T17:13:00;27.61;44.83
77052;SHT30;65980;44.898;8.602;2023-05-29T17:16:05;27.50;44.71
77052;SHT30;65980;44.898;8.602;2023-05-29T17:19:08;27.39;44.90
77052;SHT30;65980;44.898;8.602;2023-05-29T17:22:13;27.20;45.48
77052;SHT30;65980;44.898;8.602;2023-05-29T17:25:17;26.89;46.27
77052;SHT30;65980;44.898;8.602;2023-05-29T17:28:21;26.84;46.21
77052;SHT30;65980;44.898;8.602;2023-05-29T17:31:26;26.75;46.03
77052;SHT30;65980;44.898;8.602;2023-05-29T17:34:29;26.79;46.58
77052;SHT30;65980;44.898;8.602;2023-05-29T17:37:34;26.58;46.75
77052;SHT30;65980;44.898;8.602;2023-05-29T17:40:39;26.41;47.43
77052;SHT30;65980;44.898;8.602;2023-05-29T17:43:46;26.60;46.63
77052;SHT30;65980;44.898;8.602;2023-05-29T17:46:51;26.60;47.50
77052;SHT30;65980;44.898;8.602;2023-05-29T17:49:56;26.08;48.15
77052;SHT30;65980;44.898;8.602;2023-05-29T17:53:00;25.84;48.27
77052;SHT30;65980;44.898;8.602;2023-05-29T17:56:03;26.16;48.16
77052;SHT30;65980;44.898;8.602;2023-05-29T17:59:09;26.17;48.07
77052;SHT30;65980;44.898;8.602;2023-05-29T18:02:15;26.06;48.42
77052;SHT30;65980;44.898;8.602;2023-05-29T18:05:20;26.05;48.45
77052;SHT30;65980;44.898;8.602;2023-05-29T18:08:24;25.95;48.95
77052;SHT30;65980;44.898;8.602;2023-05-29T18:11:27;25.84;49.49
77052;SHT30;65980;44.898;8.602;2023-05-29T18:14:31;25.79;49.62
77052;SHT30;65980;44.898;8.602;2023-05-29T18:17:36;25.61;50.26
77052;SHT30;65980;44.898;8.602;2023-05-29T18:20:40;25.74;50.51
77052;SHT30;65980;44.898;8.602;2023-05-29T18:23:43;25.60;51.51
77052;SHT30;65980;44.898;8.602;2023-05-29T18:26:48;25.36;52.31
77052;SHT30;65980;44.898;8.602;2023-05-29T18:29:53;25.20;52.62
77052;SHT30;65980;44.898;8.602;2023-05-29T18:32:57;25.05;53.43
77052;SHT30;65980;44.898;8.602;2023-05-29T18:36:06;24.93;53.53
77052;SHT30;65980;44.898;8.602;2023-05-29T18:39:11;25.10;53.10
77052;SHT30;65980;44.898;8.602;2023-05-29T18:42:16;25.33;52.91
77052;SHT30;65980;44.898;8.602;2023-05-29T18:45:19;25.54;52.29
77052;SHT30;65980;44.898;8.602;2023-05-29T18:48:23;25.48;52.17
77052;SHT30;65980;44.898;8.602;2023-05-29T18:51:31;25.34;52.76
77052;SHT30;65980;44.898;8.602;2023-05-29T18:54:36;25.19;53.07
77052;SHT30;65980;44.898;8.602;2023-05-29T18:57:40;24.96;53.96
77052;SHT30;65980;44.898;8.602;2023-05-29T19:00:44;24.88;54.74
77052;SHT30;65980;44.898;8.602;2023-05-29T19:03:48;24.61;55.49
77052;SHT30;65980;44.898;8.602;2023-05-29T19:06:52;24.38;56.10
77052;SHT30;65980;44.898;8.602;2023-05-29T19:09:58;24.28;56.54
77052;SHT30;65980;44.898;8.602;2023-05-29T19:13:01;24.09;57.16
77052;SHT30;65980;44.898;8.602;2023-05-29T19:16:06;24.03;57.52
77052;SHT30;65980;44.898;8.602;2023-05-29T19:19:09;23.89;58.17
77052;SHT30;65980;44.898;8.602;2023-05-29T19:22:13;23.86;58.53
77052;SHT30;65980;44.898;8.602;2023-05-29T19:25:18;24.02;58.36
77052;SHT30;65980;44.898;8.602;2023-05-29T19:28:21;24.05;58.38
77052;SHT30;65980;44.898;8.602;2023-05-29T19:31:26;24.09;57.73
77052;SHT30;65980;44.898;8.602;2023-05-29T19:34:29;23.99;57.50
77052;SHT30;65980;44.898;8.602;2023-05-29T19:37:34;24.09;57.58
77052;SHT30;65980;44.898;8.602;2023-05-29T19:40:38;24.13;57.40
77052;SHT30;65980;44.898;8.602;2023-05-29T19:43:42;23.98;57.46
77052;SHT30;65980;44.898;8.602;2023-05-29T19:46:46;24.05;57.31
77052;SHT30;65980;44.898;8.602;2023-05-29T19:49:52;23.90;57.71
77052;SHT30;65980;44.898;8.602;2023-05-29T19:52:55;23.98;58.04
77052;SHT30;65980;44.898;8.602;2023-05-29T19:56:00;23.95;57.59
77052;SHT30;65980;44.898;8.602;2023-05-29T19:59:04;23.90;57.29
77052;SHT30;65980;44.898;8.602;2023-05-29T20:02:10;23.88;57.23
77052;SHT30;65980;44.898;8.602;2023-05-29T20:05:15;23.71;56.81
77052;SHT30;65980;44.898;8.602;2023-05-29T20:08:19;23.78;56.90
77052;SHT30;65980;44.898;8.602;2023-05-29T20:11:23;23.81;56.73
77052;SHT30;65980;44.898;8.602;2023-05-29T20:14:28;23.81;56.35
77052;SHT30;65980;44.898;8.602;2023-05-29T20:17:32;23.79;56.25
77052;SHT30;65980;44.898;8.602;2023-05-29T20:20:36;23.83;55.63
77052;SHT30;65980;44.898;8.602;2023-05-29T20:23:41;23.79;56.00
77052;SHT30;65980;44.898;8.602;2023-05-29T20:26:45;23.76;56.16
77052;SHT30;65980;44.898;8.602;2023-05-29T20:29:49;23.74;56.04
77052;SHT30;65980;44.898;8.602;2023-05-29T20:32:54;23.69;55.96
77052;SHT30;65980;44.898;8.602;2023-05-29T20:35:58;23.66;56.21
77052;SHT30;65980;44.898;8.602;2023-05-29T20:39:03;23.66;56.43
77052;SHT30;65980;44.898;8.602;2023-05-29T20:42:07;23.68;56.50
77052;SHT30;65980;44.898;8.602;2023-05-29T20:45:15;23.61;56.60
77052;SHT30;65980;44.898;8.602;2023-05-29T20:48:22;23.55;56.50
77052;SHT30;65980;44.898;8.602;2023-05-29T20:51:25;23.55;56.92
77052;SHT30;65980;44.898;8.602;2023-05-29T20:54:30;23.17;58.67